Time;durP1;ratioP1;P1;durP2;ratioP2;P2;SDS_P1;SDS_P2;PMS_P1;PMS_P2;Temp;Humidity;BMP_temperature;BMP_pressure;BME280_temperature;BME280_humidity;BME280_pressure;Samples;Min_cycle;Max_cycle;Signal;HPM_P1;HPM_P2
2021/05/11 00:08:02;;;;;;;8.6;5.3;;;;;;;10.62;84.54883;98367.55;;;;
2021/05/11 00:18:00;;;;;;;8.5;4.7;;;;;;;10.37;85.71484;98368.27;;;;
2021/05/11 00:27:58;;;;;;;11.6;3.9;;;;;;;10.28;87.23926;98357.45;;;;
2021/05/11 00:37:57;;;;;;;7.6;4.9;;;;;;;10.08;86.7832;98356.07;;;;
2021/05/11 00:47:55;;;;;;;5.3;3.3;;;;;;;10.21;87.50488;98356.3;;;;
2021/05/11 00:57:54;;;;;;;6.9;4.6;;;;;;;10.06;88.80176;98347.52;;;;
2021/05/11 01:07:52;;;;;;;5.8;4.4;;;;;;;9.77;89;98341.8;;;;
2021/05/11 01:17:55;;;;;;;9.1;5.8;;;;;;;9.66;91.9043;98335.08;;;;
2021/05/11 01:28:05;;;;;;;8.6;4.8;;;;;;;9.48;92.72949;98320.72;;;;
2021/05/11 02:27:38;;;;;;;7.2;5;;;;;;;8.86;100;98294.77;;;;
2021/05/11 02:37:36;;;;;;;8.3;5.3;;;;;;;8.88;100;98287.22;;;;
2021/05/11 02:47:46;;;;;;;12.3;5.4;;;;;;;8.83;100;98279.27;;;;
2021/05/11 02:57:33;;;;;;;4.9;3.2;;;;;;;9.03;100;98278.79;;;;
2021/05/11 03:07:31;;;;;;;10.8;4.6;;;;;;;8.96;100;98279.22;;;;
2021/05/11 03:17:29;;;;;;;6.6;3.6;;;;;;;8.96;100;98273.84;;;;
2021/05/11 03:27:27;;;;;;;10.5;4.8;;;;;;;8.95;100;98282.22;;;;
2021/05/11 03:37:26;;;;;;;9.7;4.8;;;;;;;9.1;100;98277.27;;;;
2021/05/11 03:47:26;;;;;;;8.5;5.1;;;;;;;9.2;100;98278.92;;;;
2021/05/11 03:57:22;;;;;;;8.1;5.6;;;;;;;9.58;100;98263.17;;;;
2021/05/11 04:07:21;;;;;;;10.8;7;;;;;;;9.89;100;98268.58;;;;
2021/05/11 04:17:19;;;;;;;6.8;4;;;;;;;10.32;100;98271.42;;;;
2021/05/11 04:27:17;;;;;;;6.4;4.1;;;;;;;10.77;98.78027;98255.8;;;;
2021/05/11 04:37:16;;;;;;;8.5;5.7;;;;;;;11.38;99.40234;98260.07;;;;
2021/05/11 04:47:16;;;;;;;12;4.8;;;;;;;12.01;95.83496;98249.25;;;;
2021/05/11 04:57:13;;;;;;;7.9;5.4;;;;;;;12.73;92.66309;98256.31;;;;
2021/05/11 05:07:11;;;;;;;6.1;4.2;;;;;;;13.39;89.16992;98251.8;;;;
2021/05/11 05:17:10;;;;;;;11.2;6.1;;;;;;;14.03;87.04688;98241.19;;;;
2021/05/11 05:27:14;;;;;;;18;5.7;;;;;;;14.6;85.88574;98246.51;;;;
2021/05/11 05:37:08;;;;;;;8.6;4.5;;;;;;;15.3;85.01953;98248.89;;;;
2021/05/11 05:47:07;;;;;;;8.6;4.8;;;;;;;16.02;80.30078;98240.34;;;;
2021/05/11 05:57:06;;;;;;;9.7;5.7;;;;;;;16.7;81.15527;98233.75;;;;
2021/05/11 06:07:05;;;;;;;9.8;4.9;;;;;;;17.5;76.99316;98220.2;;;;
2021/05/11 06:17:21;;;;;;;9.8;4.9;;;;;;;18.24;75.53711;98223.44;;;;
2021/05/11 06:27:04;;;;;;;8.5;4.7;;;;;;;18.89;75.73926;98210.34;;;;
2021/05/11 06:37:03;;;;;;;8.3;4.6;;;;;;;19.8;71.34961;98196.92;;;;
2021/05/11 06:47:28;;;;;;;7.1;3.1;;;;;;;20.57;60.21582;98199.48;;;;
2021/05/11 06:57:02;;;;;;;5;2.5;;;;;;;21.17;58.90039;98200.95;;;;
2021/05/11 07:07:07;;;;;;;6.3;2.6;;;;;;;21.48;56.04492;98175.59;;;;
2021/05/11 07:17:02;;;;;;;3.6;1.7;;;;;;;21.91;53.3252;98196.41;;;;
2021/05/11 07:27:33;;;;;;;4.2;2;;;;;;;22.2;52.49707;98191.71;;;;
2021/05/11 07:37:02;;;;;;;5.7;1.6;;;;;;;22.55;48.99707;98177.92;;;;
2021/05/11 07:47:09;;;;;;;3.8;1.6;;;;;;;22.91;45.09082;98175.07;;;;
2021/05/11 08:17:02;;;;;;;2.9;1.4;;;;;;;23.81;43.53809;98174.2;;;;
2021/05/11 08:37:03;;;;;;;5.1;1.9;;;;;;;24.78;45.83301;98162.64;;;;
2021/05/11 08:47:03;;;;;;;5.1;1.9;;;;;;;25;43.6875;98163.2;;;;
2021/05/11 09:07:35;;;;;;;6.3;3.4;;;;;;;25.7;47.31543;98150.41;;;;
2021/05/11 09:27:11;;;;;;;6.8;2.2;;;;;;;26.42;43.79004;98136.96;;;;
2021/05/11 09:57:15;;;;;;;3.4;1.3;;;;;;;27.12;41.74023;98129.25;;;;
2021/05/11 10:31:21;;;;;;;3.3;1.7;;;;;;;27.75;36.97168;98104.88;;;;
2021/05/11 10:47:08;;;;;;;3.6;1.5;;;;;;;27.96;35.14746;98089.7;;;;
2021/05/11 10:57:09;;;;;;;5.6;2.1;;;;;;;28.04;36.60254;98080;;;;
2021/05/11 11:07:09;;;;;;;5.8;1.7;;;;;;;28.62;37.07813;98066.94;;;;
2021/05/11 11:17:10;;;;;;;5.2;2.2;;;;;;;28.82;37.62988;98069.55;;;;
2021/05/11 11:27:11;;;;;;;4.6;1.9;;;;;;;28.83;34.44141;98055.25;;;;
2021/05/11 11:37:15;;;;;;;6;1.9;;;;;;;28.75;34.04199;98048.34;;;;
2021/05/11 11:47:13;;;;;;;4.9;1.9;;;;;;;28.78;34.04395;98047.45;;;;
2021/05/11 12:07:17;;;;;;;5.4;2.1;;;;;;;29.41;35.17578;98016.17;;;;
2021/05/11 12:17:16;;;;;;;6.8;2;;;;;;;29.56;35.31934;98006.16;;;;
2021/05/11 12:27:18;;;;;;;6.6;1.9;;;;;;;29.76;32.97266;98003.88;;;;
2021/05/11 12:37:18;;;;;;;5.4;1.7;;;;;;;29.46;36.00293;97990.64;;;;
2021/05/11 12:47:18;;;;;;;4.2;1.7;;;;;;;29.84;35.10254;97973.88;;;;
2021/05/11 12:57:22;;;;;;;4.8;2.3;;;;;;;29.88;34.10254;97964.2;;;;
2021/05/11 13:17:37;;;;;;;7.3;2;;;;;;;29.54;34.95996;97936.39;;;;
2021/05/11 13:27:26;;;;;;;5.2;1.9;;;;;;;29.78;34.63184;97928.43;;;;
2021/05/11 13:37:27;;;;;;;5.4;1.9;;;;;;;30.04;33.74512;97918.75;;;;
2021/05/11 13:47:24;;;;;;;7.4;2.6;;;;;;;30.02;33.51563;97909.33;;;;
2021/05/11 14:01:29;;;;;;;4.1;1.4;;;;;;;30.3;32.0791;97899.92;;;;
2021/05/11 14:07:26;;;;;;;5.5;2.2;;;;;;;30.63;31.14551;97881.54;;;;
2021/05/11 14:17:27;;;;;;;3.4;1.9;;;;;;;30.13;34.24023;97868.02;;;;
2021/05/11 14:27:28;;;;;;;5.7;1.8;;;;;;;30.34;32.26074;97858.83;;;;
2021/05/11 14:37:29;;;;;;;5.5;2.2;;;;;;;30.91;31.33203;97844.2;;;;
2021/05/11 14:47:30;;;;;;;5.7;1.9;;;;;;;31.05;32.39551;97837.3;;;;
2021/05/11 14:57:31;;;;;;;16.6;3.3;;;;;;;30.34;32.11816;97823.45;;;;
2021/05/11 15:07:32;;;;;;;13.6;2.5;;;;;;;31.38;30.57227;97820.73;;;;
2021/05/11 15:27:35;;;;;;;5.9;2.3;;;;;;;33.5;27.87207;97810.52;;;;
2021/05/11 15:37:37;;;;;;;4.6;2.5;;;;;;;34.2;27.43164;97800.34;;;;
2021/05/11 15:47:51;;;;;;;5.7;2.1;;;;;;;34.97;25.72363;97785.14;;;;
2021/05/11 15:57:41;;;;;;;13.3;2.6;;;;;;;33.58;26.42969;97783.74;;;;
2021/05/11 16:07:43;;;;;;;6.6;3.6;;;;;;;34.7;25.66016;97764.72;;;;
2021/05/11 16:17:44;;;;;;;5.7;3.1;;;;;;;31.1;30.13477;97755.94;;;;
2021/05/11 16:27:46;;;;;;;5.5;2.9;;;;;;;30.95;30.05371;97741.08;;;;
2021/05/11 16:37:47;;;;;;;5.2;2.5;;;;;;;29.58;32.15918;97747.41;;;;
2021/05/11 16:47:55;;;;;;;6.9;2.7;;;;;;;28.29;33.69824;97741.98;;;;
2021/05/11 16:57:50;;;;;;;5.5;2.5;;;;;;;28.06;34.34668;97736.78;;;;
2021/05/11 17:07:51;;;;;;;4.9;2.3;;;;;;;28.1;34.6582;97739.47;;;;
2021/05/11 17:17:52;;;;;;;4.4;2.2;;;;;;;27.23;36.53711;97736.11;;;;
2021/05/11 17:27:54;;;;;;;7.7;2.6;;;;;;;26.33;37.95605;97749.92;;;;
2021/05/11 17:37:54;;;;;;;15.2;3.5;;;;;;;25.88;39.3125;97736.75;;;;
2021/05/11 17:47:58;;;;;;;15.2;3.5;;;;;;;25.13;40.48438;97744.27;;;;
2021/05/11 17:57:53;;;;;;;6.1;2.7;;;;;;;24.55;41.8916;97754.73;;;;
2021/05/11 18:07:55;;;;;;;6;3.3;;;;;;;23.9;43.04102;97753.39;;;;
2021/05/11 18:17:54;;;;;;;8.2;3.9;;;;;;;23.39;43.40332;97765.46;;;;
2021/05/11 18:27:54;;;;;;;8.3;4.2;;;;;;;23;44.00977;97765.91;;;;
2021/05/11 18:37:56;;;;;;;12.2;6.3;;;;;;;22.53;44.54883;97759.27;;;;
2021/05/11 18:47:57;;;;;;;8.1;3.9;;;;;;;22.13;45.49121;97770.98;;;;
2021/05/11 18:57:54;;;;;;;8.6;4.8;;;;;;;21.81;46.46387;97780.17;;;;
2021/05/11 19:07:53;;;;;;;14.7;5.5;;;;;;;21.47;46.38184;97770.95;;;;
2021/05/11 19:17:53;;;;;;;8.9;5.4;;;;;;;21.12;47.36035;97777.35;;;;
2021/05/11 19:27:54;;;;;;;11.7;5.9;;;;;;;20.87;47.07715;97788.34;;;;
2021/05/11 19:37:52;;;;;;;7;4.2;;;;;;;20.45;47.73145;97791.12;;;;
2021/05/11 19:47:52;;;;;;;9.4;4.4;;;;;;;19.82;49.88281;97798.05;;;;
2021/05/11 19:57:52;;;;;;;7.6;4.2;;;;;;;19.28;52.96484;97787.3;;;;
2021/05/11 20:07:51;;;;;;;13.3;6;;;;;;;18.8;54.48242;97794.84;;;;
2021/05/11 20:17:53;;;;;;;9.4;6.4;;;;;;;18.36;57.88379;97803.08;;;;
2021/05/11 20:27:50;;;;;;;8.2;4.8;;;;;;;17.89;58.07715;97812.77;;;;
2021/05/11 20:37:50;;;;;;;7.6;4.5;;;;;;;17.43;59.56152;97805.98;;;;
2021/05/11 20:47:55;;;;;;;8.6;4.9;;;;;;;17.34;60.1709;97809;;;;
2021/05/11 20:57:48;;;;;;;7.8;4.5;;;;;;;17.46;59.76074;97803.3;;;;
2021/05/11 21:07:47;;;;;;;8.7;5.7;;;;;;;17.5;59.56934;97808.78;;;;
2021/05/11 21:17:46;;;;;;;10.9;7.2;;;;;;;17.47;62.36621;97818.49;;;;
2021/05/11 21:27:46;;;;;;;13;7.6;;;;;;;16.61;68.76465;97814.98;;;;
2021/05/11 21:37:44;;;;;;;11.2;7.7;;;;;;;16.39;65.90918;97808.38;;;;
2021/05/11 21:47:43;;;;;;;12;9.5;;;;;;;16.55;63.5332;97800.09;;;;
2021/05/11 21:57:43;;;;;;;16.1;9.5;;;;;;;16.08;70.89258;97801.26;;;;
2021/05/11 22:07:42;;;;;;;17.2;8.5;;;;;;;15.5;75.1748;97806.02;;;;
2021/05/11 22:17:41;;;;;;;17;8.3;;;;;;;15.11;75.33691;97804.39;;;;
2021/05/11 22:27:39;;;;;;;15.4;9.7;;;;;;;14.65;76.12305;97810.75;;;;
2021/05/11 22:37:38;;;;;;;13.7;9;;;;;;;14.32;81.52734;97790.19;;;;
2021/05/11 22:47:37;;;;;;;13;8.1;;;;;;;13.97;80.63281;97794.73;;;;
2021/05/11 22:57:36;;;;;;;10.8;7.4;;;;;;;13.63;83.82617;97795.38;;;;
2021/05/11 23:07:35;;;;;;;15.4;9.5;;;;;;;13.36;82.47168;97783.44;;;;
2021/05/11 23:17:35;;;;;;;10.7;7.2;;;;;;;13.19;85.81543;97784.49;;;;
2021/05/11 23:27:32;;;;;;;11.2;7.2;;;;;;;13.16;86.24023;97777.06;;;;
2021/05/11 23:37:31;;;;;;;9.5;5.8;;;;;;;12.94;86.24121;97769.46;;;;
2021/05/11 23:47:30;;;;;;;11.1;6.4;;;;;;;12.73;89.33203;97766.92;;;;
2021/05/11 23:57:28;;;;;;;12.4;7.5;;;;;;;12.55;89.05664;97768.29;;;;
